Time;durP1;ratioP1;P1;durP2;ratioP2;P2;SDS_P1;SDS_P2;PMS_P1;PMS_P2;Temp;Humidity;BMP_temperature;BMP_pressure;BME280_temperature;BME280_humidity;BME280_pressure;Samples;Min_cycle;Max_cycle;Signal;HPM_P1;HPM_P2
2023/03/09 00:01:39;;;;;;;8.93;8.52;;;;;;;;;;5009950;28;20045;-62
2023/03/09 00:04:05;;;;;;;8.68;8.27;;;;;;;;;;5015680;28;20030;-63
2023/03/09 00:06:31;;;;;;;8.88;8.48;;;;;;;;;;5018409;28;20076;-63
2023/03/09 00:08:56;;;;;;;8.60;8.20;;;;;;;;;;5013992;28;20044;-63
2023/03/09 00:11:22;;;;;;;8.90;8.50;;;;;;;;;;5004796;28;20069;-64
2023/03/09 00:13:48;;;;;;;9.00;8.60;;;;;;;;;;5013504;28;20022;-63
2023/03/09 00:16:18;;;;;;;9.00;8.60;;;;;;;;;;5015129;28;20029;-63
2023/03/09 00:18:43;;;;;;;9.35;8.88;;;;;;;;;;5013076;28;20502;-63
2023/03/09 00:21:14;;;;;;;8.73;8.32;;;;;;;;;;5018695;28;20105;-63
2023/03/09 00:23:40;;;;;;;9.60;9.10;;;;;;;;;;5009882;28;20030;-62
2023/03/09 00:26:06;;;;;;;9.25;8.85;;;;;;;;;;5014567;28;20503;-62
2023/03/09 00:28:31;;;;;;;8.90;8.50;;;;;;;;;;5014869;28;20538;-62
2023/03/09 00:31:01;;;;;;;9.13;8.73;;;;;;;;;;5014955;28;20113;-62
2023/03/09 00:33:26;;;;;;;8.82;8.43;;;;;;;;;;5010240;28;20571;-62
2023/03/09 00:35:51;;;;;;;8.90;8.50;;;;;;;;;;5014786;28;20089;-62
2023/03/09 00:38:16;;;;;;;9.13;8.73;;;;;;;;;;5015292;28;20032;-62
2023/03/09 00:40:42;;;;;;;9.63;9.13;;;;;;;;;;5013796;28;20473;-62
2023/03/09 00:43:07;;;;;;;8.75;8.35;;;;;;;;;;5014998;28;20017;-62
2023/03/09 00:45:32;;;;;;;8.60;8.20;;;;;;;;;;5010026;28;20507;-61
2023/03/09 00:47:57;;;;;;;8.77;8.38;;;;;;;;;;5015199;28;20014;-61
2023/03/09 00:50:23;;;;;;;9.05;8.65;;;;;;;;;;5012749;28;20445;-63
2023/03/09 00:52:48;;;;;;;9.38;8.90;;;;;;;;;;5014996;28;20029;-63
2023/03/09 00:55:14;;;;;;;8.60;8.20;;;;;;;;;;5014158;28;20017;-62
2023/03/09 00:57:40;;;;;;;8.93;8.52;;;;;;;;;;5006831;28;20019;-62
2023/03/09 01:00:06;;;;;;;8.80;8.40;;;;;;;;;;5009437;28;20025;-62
2023/03/09 01:02:32;;;;;;;9.05;8.65;;;;;;;;;;5014950;28;20022;-62
2023/03/09 01:04:57;;;;;;;9.10;8.70;;;;;;;;;;5014804;28;20397;-62
2023/03/09 01:07:22;;;;;;;8.75;8.35;;;;;;;;;;5014349;28;20021;-62
2023/03/09 01:09:48;;;;;;;8.80;8.40;;;;;;;;;;5014835;28;20484;-63
2023/03/09 01:12:13;;;;;;;8.80;8.40;;;;;;;;;;4999302;28;20029;-62
2023/03/09 01:14:39;;;;;;;9.07;8.68;;;;;;;;;;5004354;28;20022;-63
2023/03/09 01:17:04;;;;;;;9.10;8.70;;;;;;;;;;5014915;28;20037;-62
2023/03/09 01:19:30;;;;;;;9.07;8.68;;;;;;;;;;5016570;28;20490;-63
2023/03/09 01:21:56;;;;;;;9.63;9.13;;;;;;;;;;5014656;28;20029;-62
2023/03/09 01:24:21;;;;;;;9.25;8.85;;;;;;;;;;5014212;28;20481;-63
2023/03/09 01:26:46;;;;;;;9.20;8.80;;;;;;;;;;4994357;28;20030;-63
2023/03/09 01:29:12;;;;;;;9.30;8.90;;;;;;;;;;5006691;28;20042;-63
2023/03/09 01:31:37;;;;;;;8.80;8.40;;;;;;;;;;5010473;28;20029;-63
2023/03/09 01:34:02;;;;;;;9.25;8.85;;;;;;;;;;5014081;28;20543;-63
2023/03/09 01:36:28;;;;;;;9.07;8.68;;;;;;;;;;5013650;28;20045;-63
2023/03/09 01:38:53;;;;;;;9.00;8.60;;;;;;;;;;5014009;28;20362;-63
2023/03/09 01:41:19;;;;;;;9.27;8.88;;;;;;;;;;5009166;28;20022;-63
2023/03/09 01:43:46;;;;;;;9.13;8.73;;;;;;;;;;5013426;28;20164;-63
2023/03/09 01:46:21;;;;;;;9.77;9.27;;;;;;;;;;5013642;28;20032;-63
2023/03/09 01:48:47;;;;;;;9.45;9.02;;;;;;;;;;5012953;28;20030;-63
2023/03/09 01:51:13;;;;;;;9.18;8.77;;;;;;;;;;5012583;28;20026;-63
2023/03/09 01:53:39;;;;;;;8.70;8.30;;;;;;;;;;5013653;28;20018;-62
2023/03/09 01:56:04;;;;;;;9.68;9.18;;;;;;;;;;5011619;28;20029;-62
2023/03/09 01:58:30;;;;;;;9.30;8.90;;;;;;;;;;5013643;28;20018;-62
2023/03/09 02:00:56;;;;;;;8.98;8.57;;;;;;;;;;5011654;28;20160;-62
2023/03/09 02:03:23;;;;;;;9.02;8.63;;;;;;;;;;5013903;28;20028;-62
2023/03/09 02:05:51;;;;;;;8.93;8.52;;;;;;;;;;5008364;28;20099;-63
2023/03/09 02:08:17;;;;;;;9.20;8.80;;;;;;;;;;5013280;28;20030;-61
2023/03/09 02:10:46;;;;;;;8.93;8.52;;;;;;;;;;5010772;28;20030;-62
2023/03/09 02:13:15;;;;;;;9.30;8.90;;;;;;;;;;5013202;28;20024;-62
2023/03/09 02:15:41;;;;;;;9.30;8.90;;;;;;;;;;5013183;28;20048;-62
2023/03/09 02:18:06;;;;;;;9.20;8.80;;;;;;;;;;5012915;28;20432;-62
2023/03/09 02:20:36;;;;;;;8.88;8.48;;;;;;;;;;5024806;28;20022;-62
2023/03/09 02:23:03;;;;;;;10.00;9.50;;;;;;;;;;5011699;28;20551;-63
2023/03/09 02:25:32;;;;;;;9.27;8.88;;;;;;;;;;5013224;28;20307;-62
2023/03/09 02:27:59;;;;;;;9.25;8.85;;;;;;;;;;5012881;28;20389;-63
2023/03/09 02:30:25;;;;;;;9.30;8.90;;;;;;;;;;5011720;28;20058;-62
2023/03/09 02:33:00;;;;;;;9.73;9.23;;;;;;;;;;5012720;28;20022;-63
2023/03/09 02:35:25;;;;;;;9.20;8.80;;;;;;;;;;5011831;28;20113;-63
2023/03/09 02:37:51;;;;;;;9.40;9.00;;;;;;;;;;5006206;28;20112;-63
2023/03/09 02:40:16;;;;;;;9.23;8.82;;;;;;;;;;5002783;28;20034;-62
2023/03/09 02:42:43;;;;;;;9.20;8.80;;;;;;;;;;5008080;28;20014;-62
2023/03/09 02:45:10;;;;;;;9.70;9.25;;;;;;;;;;5012827;28;20022;-62
2023/03/09 02:47:36;;;;;;;9.02;8.63;;;;;;;;;;5011984;28;20014;-61
2023/03/09 02:50:01;;;;;;;9.23;8.82;;;;;;;;;;5012757;28;20421;-62
2023/03/09 02:52:26;;;;;;;9.23;8.82;;;;;;;;;;5000044;28;20030;-61
2023/03/09 02:54:52;;;;;;;9.07;8.68;;;;;;;;;;5011190;28;20107;-62
2023/03/09 02:57:17;;;;;;;9.40;9.00;;;;;;;;;;5011102;28;20708;-62
2023/03/09 02:59:43;;;;;;;9.10;8.70;;;;;;;;;;5012786;28;20021;-62
2023/03/09 03:02:09;;;;;;;10.52;10.02;;;;;;;;;;5012201;28;20025;-63
2023/03/09 03:04:34;;;;;;;9.52;9.13;;;;;;;;;;5012553;28;20022;-63
2023/03/09 03:07:00;;;;;;;9.80;9.30;;;;;;;;;;5000716;28;20025;-62
2023/03/09 03:09:25;;;;;;;9.40;9.00;;;;;;;;;;5010154;28;20108;-62
2023/03/09 03:11:51;;;;;;;9.23;8.82;;;;;;;;;;5011788;28;20022;-62
2023/03/09 03:14:16;;;;;;;9.35;8.95;;;;;;;;;;5011885;28;20421;-63
2023/03/09 03:16:41;;;;;;;9.20;8.80;;;;;;;;;;5014727;28;20474;-63
2023/03/09 03:19:07;;;;;;;9.25;8.85;;;;;;;;;;5025616;28;20072;-63
2023/03/09 03:21:33;;;;;;;9.20;8.80;;;;;;;;;;5005429;28;20029;-62
2023/03/09 03:23:58;;;;;;;9.80;9.30;;;;;;;;;;5009852;28;24454;-62
2023/03/09 03:26:24;;;;;;;9.60;9.20;;;;;;;;;;5007920;28;20030;-62
2023/03/09 03:28:49;;;;;;;9.98;9.48;;;;;;;;;;5011772;28;20034;-61
2023/03/09 03:31:14;;;;;;;10.23;9.73;;;;;;;;;;5011535;28;20448;-64
2023/03/09 03:33:39;;;;;;;9.50;9.10;;;;;;;;;;5007936;28;20018;-62
2023/03/09 03:36:05;;;;;;;9.82;9.32;;;;;;;;;;4999201;28;20014;-62
2023/03/09 03:38:30;;;;;;;9.15;8.75;;;;;;;;;;5011957;28;20084;-63
2023/03/09 03:40:56;;;;;;;9.50;9.10;;;;;;;;;;5011817;28;20030;-62
2023/03/09 03:43:21;;;;;;;9.07;8.68;;;;;;;;;;5010624;28;20034;-62
2023/03/09 03:45:47;;;;;;;8.90;8.50;;;;;;;;;;5011777;28;20025;-62
2023/03/09 03:48:12;;;;;;;9.27;8.88;;;;;;;;;;5003418;28;20022;-62
2023/03/09 03:50:38;;;;;;;9.10;8.70;;;;;;;;;;5010673;28;20026;-62
2023/03/09 03:53:03;;;;;;;9.52;9.13;;;;;;;;;;5011390;28;20046;-62
2023/03/09 03:55:29;;;;;;;9.27;8.88;;;;;;;;;;5011908;28;20436;-62
2023/03/09 03:57:54;;;;;;;10.15;9.65;;;;;;;;;;5010140;28;20036;-63
2023/03/09 04:00:20;;;;;;;9.32;8.93;;;;;;;;;;5011561;28;20030;-62
2023/03/09 04:02:46;;;;;;;9.18;8.77;;;;;;;;;;5004449;28;20481;-63
2023/03/09 04:05:12;;;;;;;9.73;9.23;;;;;;;;;;5010484;28;20037;-63
2023/03/09 04:07:37;;;;;;;8.77;8.38;;;;;;;;;;5005002;28;20022;-63
2023/03/09 04:10:03;;;;;;;9.70;9.23;;;;;;;;;;5011403;28;20470;-63
2023/03/09 04:12:29;;;;;;;9.30;8.90;;;;;;;;;;5011419;28;20010;-63
2023/03/09 04:14:54;;;;;;;9.30;8.90;;;;;;;;;;5011660;28;20018;-63
2023/03/09 04:17:19;;;;;;;9.50;9.10;;;;;;;;;;5013297;28;20049;-63
2023/03/09 04:19:45;;;;;;;8.98;8.57;;;;;;;;;;5020889;28;20044;-63
2023/03/09 04:22:10;;;;;;;9.95;9.45;;;;;;;;;;5011244;28;20033;-62
2023/03/09 04:24:35;;;;;;;10.15;9.65;;;;;;;;;;5009737;28;20105;-63
2023/03/09 04:27:01;;;;;;;9.52;9.10;;;;;;;;;;4993753;28;20022;-63
2023/03/09 04:29:26;;;;;;;9.63;9.18;;;;;;;;;;5010614;28;20060;-62
2023/03/09 04:31:51;;;;;;;8.93;8.52;;;;;;;;;;5010465;28;20026;-63
2023/03/09 04:34:17;;;;;;;9.40;9.00;;;;;;;;;;5010929;28;20021;-62
2023/03/09 04:36:42;;;;;;;9.00;8.60;;;;;;;;;;5013534;28;20032;-62
2023/03/09 04:39:08;;;;;;;9.40;9.00;;;;;;;;;;5011663;28;20045;-63
2023/03/09 04:41:33;;;;;;;9.10;8.70;;;;;;;;;;5009990;28;20026;-63
2023/03/09 04:43:59;;;;;;;9.25;8.85;;;;;;;;;;5012679;28;20030;-63
2023/03/09 04:46:24;;;;;;;9.82;9.32;;;;;;;;;;5004553;28;20022;-62
2023/03/09 04:48:50;;;;;;;9.88;9.38;;;;;;;;;;5017026;28;20026;-62
2023/03/09 04:51:15;;;;;;;9.45;9.02;;;;;;;;;;5010269;28;20022;-63
2023/03/09 04:53:40;;;;;;;9.77;9.27;;;;;;;;;;5012128;28;20418;-63
2023/03/09 04:56:06;;;;;;;9.68;9.23;;;;;;;;;;5014874;28;20024;-63
2023/03/09 04:58:31;;;;;;;9.38;8.98;;;;;;;;;;5010148;28;20022;-61
2023/03/09 05:00:56;;;;;;;9.70;9.20;;;;;;;;;;5014197;28;20036;-61
2023/03/09 05:03:22;;;;;;;9.90;9.40;;;;;;;;;;5013256;28;20017;-61
2023/03/09 05:05:47;;;;;;;9.40;9.00;;;;;;;;;;5001623;28;20061;-61
2023/03/09 05:08:12;;;;;;;10.95;10.35;;;;;;;;;;5007392;28;20026;-63
2023/03/09 05:10:38;;;;;;;9.07;8.68;;;;;;;;;;4996186;28;20030;-62
2023/03/09 05:13:03;;;;;;;9.77;9.27;;;;;;;;;;5010929;28;20337;-62
2023/03/09 05:15:28;;;;;;;9.90;9.40;;;;;;;;;;5014485;28;20101;-62
2023/03/09 05:17:54;;;;;;;9.45;9.05;;;;;;;;;;5016046;28;20026;-62
2023/03/09 05:20:19;;;;;;;9.82;9.32;;;;;;;;;;5014367;28;20496;-62
2023/03/09 05:22:45;;;;;;;10.10;9.60;;;;;;;;;;5014003;28;20104;-61
2023/03/09 05:25:10;;;;;;;9.85;9.35;;;;;;;;;;5011689;28;20025;-62
2023/03/09 05:27:35;;;;;;;9.30;8.90;;;;;;;;;;4996420;28;20014;-61
2023/03/09 05:30:01;;;;;;;9.93;9.43;;;;;;;;;;5013731;28;20038;-61
2023/03/09 05:32:26;;;;;;;8.88;8.48;;;;;;;;;;5013906;28;20029;-61
2023/03/09 05:34:53;;;;;;;10.57;10.07;;;;;;;;;;5003615;28;20057;-62
2023/03/09 05:37:18;;;;;;;10.27;9.77;;;;;;;;;;5012980;28;20022;-63
2023/03/09 05:39:43;;;;;;;10.40;9.90;;;;;;;;;;5009725;28;20079;-63
2023/03/09 05:42:09;;;;;;;10.45;9.95;;;;;;;;;;5006844;28;20022;-63
2023/03/09 05:44:34;;;;;;;10.20;9.70;;;;;;;;;;5009279;28;20034;-65
2023/03/09 05:47:00;;;;;;;10.32;9.82;;;;;;;;;;5000858;28;20033;-63
2023/03/09 05:49:30;;;;;;;9.50;9.10;;;;;;;;;;5008180;28;20022;-63
2023/03/09 05:51:55;;;;;;;9.35;8.95;;;;;;;;;;5003659;28;20121;-62
2023/03/09 05:54:22;;;;;;;10.00;9.50;;;;;;;;;;5008239;28;20050;-62
2023/03/09 05:56:47;;;;;;;9.55;9.15;;;;;;;;;;5010730;28;20157;-62
2023/03/09 05:59:12;;;;;;;10.30;9.80;;;;;;;;;;5013235;28;20557;-63
2023/03/09 06:01:38;;;;;;;9.82;9.43;;;;;;;;;;5012856;28;20076;-63
2023/03/09 06:04:03;;;;;;;10.23;9.73;;;;;;;;;;5013017;28;20034;-63
2023/03/09 06:06:28;;;;;;;9.50;9.10;;;;;;;;;;4995432;28;20025;-63
2023/03/09 06:08:55;;;;;;;9.82;9.43;;;;;;;;;;5015166;28;20101;-64
2023/03/09 06:11:21;;;;;;;10.13;9.68;;;;;;;;;;5014721;28;20207;-63
2023/03/09 06:13:46;;;;;;;10.35;9.85;;;;;;;;;;4995219;28;20440;-62
2023/03/09 06:16:13;;;;;;;10.00;9.60;;;;;;;;;;5012868;28;20120;-63
2023/03/09 06:18:38;;;;;;;10.10;9.70;;;;;;;;;;5017747;28;20025;-64
2023/03/09 06:21:05;;;;;;;10.02;9.63;;;;;;;;;;5013278;28;20021;-63
2023/03/09 06:23:31;;;;;;;10.15;9.75;;;;;;;;;;5008241;28;20079;-63
2023/03/09 06:25:57;;;;;;;9.98;9.55;;;;;;;;;;5012813;28;20060;-63
2023/03/09 06:28:22;;;;;;;10.35;9.88;;;;;;;;;;5015230;28;20021;-64
2023/03/09 06:30:47;;;;;;;10.30;9.88;;;;;;;;;;5014467;28;20094;-63
2023/03/09 06:33:14;;;;;;;10.27;9.88;;;;;;;;;;5013546;28;20041;-62
2023/03/09 06:35:40;;;;;;;10.07;9.68;;;;;;;;;;5012874;28;20010;-62
2023/03/09 06:38:06;;;;;;;10.48;10.00;;;;;;;;;;5012516;28;20488;-63
2023/03/09 06:40:31;;;;;;;10.55;10.05;;;;;;;;;;5012392;28;20045;-63
2023/03/09 06:42:57;;;;;;;10.65;10.15;;;;;;;;;;4993636;28;20018;-63
2023/03/09 06:45:22;;;;;;;10.73;10.23;;;;;;;;;;5009826;28;20030;-63
2023/03/09 06:47:48;;;;;;;10.95;10.45;;;;;;;;;;5012390;28;20065;-62
2023/03/09 06:50:13;;;;;;;10.43;9.93;;;;;;;;;;5005684;28;20184;-62
2023/03/09 06:52:39;;;;;;;10.55;10.05;;;;;;;;;;5016292;28;20029;-63
2023/03/09 06:55:05;;;;;;;10.50;10.00;;;;;;;;;;5008121;28;20023;-63
2023/03/09 06:57:30;;;;;;;10.32;9.93;;;;;;;;;;5000934;28;20028;-63
2023/03/09 06:59:55;;;;;;;10.70;10.20;;;;;;;;;;5014955;28;20498;-62
2023/03/09 07:02:21;;;;;;;10.37;9.93;;;;;;;;;;5008609;28;20105;-62
2023/03/09 07:04:46;;;;;;;10.10;9.70;;;;;;;;;;5009784;28;20685;-62
2023/03/09 07:07:12;;;;;;;10.40;9.90;;;;;;;;;;5003846;28;20022;-61
2023/03/09 07:09:38;;;;;;;10.52;10.02;;;;;;;;;;5008726;28;20028;-62
2023/03/09 07:12:03;;;;;;;10.75;10.25;;;;;;;;;;5009439;28;20034;-62
2023/03/09 07:14:28;;;;;;;11.50;11.00;;;;;;;;;;5012381;28;20029;-65
2023/03/09 07:16:55;;;;;;;11.60;11.10;;;;;;;;;;5005842;28;20052;-66
2023/03/09 07:19:20;;;;;;;10.63;10.13;;;;;;;;;;5015133;28;20723;-65
2023/03/09 07:21:47;;;;;;;10.95;10.45;;;;;;;;;;5009137;28;20033;-67
2023/03/09 07:24:13;;;;;;;11.10;10.60;;;;;;;;;;4988924;28;20033;-67
2023/03/09 07:26:38;;;;;;;10.98;10.48;;;;;;;;;;5014608;28;20040;-67
2023/03/09 07:29:03;;;;;;;11.00;10.50;;;;;;;;;;5013068;28;20052;-67
2023/03/09 07:31:29;;;;;;;10.90;10.40;;;;;;;;;;5015720;28;20018;-66
2023/03/09 07:33:55;;;;;;;11.35;10.85;;;;;;;;;;5009053;28;20332;-65
2023/03/09 07:36:20;;;;;;;11.50;11.00;;;;;;;;;;5011520;28;20021;-65
2023/03/09 07:38:47;;;;;;;11.05;10.55;;;;;;;;;;5008866;28;20022;-63
2023/03/09 07:41:12;;;;;;;11.27;10.77;;;;;;;;;;5013156;28;20085;-65
2023/03/09 07:43:43;;;;;;;10.88;10.38;;;;;;;;;;5015798;28;20075;-66
2023/03/09 07:46:09;;;;;;;10.95;10.45;;;;;;;;;;5017114;28;20028;-67
2023/03/09 07:48:37;;;;;;;10.70;10.20;;;;;;;;;;5023976;28;20018;-70
2023/03/09 07:51:03;;;;;;;11.13;10.63;;;;;;;;;;5006527;28;20545;-67
2023/03/09 07:53:32;;;;;;;11.10;10.60;;;;;;;;;;5007008;28;20120;-67
2023/03/09 07:55:58;;;;;;;10.68;10.18;;;;;;;;;;5004266;28;20014;-67
2023/03/09 07:58:23;;;;;;;10.48;9.98;;;;;;;;;;5004150;28;20029;-67
2023/03/09 08:00:49;;;;;;;10.95;10.45;;;;;;;;;;5008281;28;20033;-65
2023/03/09 08:03:14;;;;;;;11.05;10.55;;;;;;;;;;5000230;28;20030;-66
2023/03/09 08:05:42;;;;;;;11.00;10.50;;;;;;;;;;5010143;28;20029;-69
2023/03/09 08:08:07;;;;;;;10.73;10.23;;;;;;;;;;5007448;28;20065;-68
2023/03/09 08:10:33;;;;;;;10.70;10.20;;;;;;;;;;5005765;28;20058;-69
2023/03/09 08:12:59;;;;;;;11.20;10.70;;;;;;;;;;5016068;28;20025;-66
2023/03/09 08:15:24;;;;;;;10.95;10.45;;;;;;;;;;5007766;28;20072;-67
2023/03/09 08:17:49;;;;;;;11.10;10.60;;;;;;;;;;5019295;28;20042;-66
2023/03/09 08:20:15;;;;;;;11.30;10.80;;;;;;;;;;5006044;28;20085;-69
2023/03/09 08:22:41;;;;;;;10.85;10.35;;;;;;;;;;5003739;28;20026;-69
2023/03/09 08:25:06;;;;;;;10.77;10.27;;;;;;;;;;5017527;28;20053;-66
2023/03/09 08:27:42;;;;;;;10.77;10.27;;;;;;;;;;5021370;28;20072;-68
2023/03/09 08:30:07;;;;;;;10.45;9.95;;;;;;;;;;5017672;28;20073;-66
2023/03/09 08:32:33;;;;;;;10.75;10.25;;;;;;;;;;5011733;28;20052;-68
2023/03/09 08:34:58;;;;;;;10.88;10.38;;;;;;;;;;5009597;28;20113;-67
2023/03/09 08:37:24;;;;;;;11.02;10.52;;;;;;;;;;5009341;28;20033;-67
2023/03/09 08:39:52;;;;;;;11.05;10.55;;;;;;;;;;5014696;28;20539;-66
2023/03/09 08:42:18;;;;;;;10.63;10.13;;;;;;;;;;4993625;28;20389;-71
2023/03/09 08:44:43;;;;;;;10.80;10.30;;;;;;;;;;5013318;28;20033;-68
2023/03/09 08:47:09;;;;;;;11.23;10.73;;;;;;;;;;5009532;28;20187;-67
2023/03/09 08:49:34;;;;;;;11.07;10.57;;;;;;;;;;5010620;28;20034;-69
2023/03/09 08:51:59;;;;;;;10.65;10.15;;;;;;;;;;4996827;28;20030;-70
2023/03/09 08:54:25;;;;;;;10.80;10.30;;;;;;;;;;5012989;28;20518;-69
2023/03/09 08:56:51;;;;;;;11.02;10.52;;;;;;;;;;5015384;28;20368;-67
2023/03/09 08:59:16;;;;;;;10.63;10.13;;;;;;;;;;5018158;28;20029;-69
2023/03/09 09:01:43;;;;;;;10.88;10.38;;;;;;;;;;5014800;28;20025;-65
2023/03/09 09:04:08;;;;;;;11.13;10.63;;;;;;;;;;5018967;28;20016;-69
2023/03/09 09:06:34;;;;;;;11.50;11.00;;;;;;;;;;5008906;28;20030;-67
2023/03/09 09:08:59;;;;;;;11.02;10.52;;;;;;;;;;5012454;28;20235;-69
2023/03/09 09:11:24;;;;;;;11.40;10.90;;;;;;;;;;4991783;28;20056;-69
2023/03/09 09:13:51;;;;;;;11.40;10.90;;;;;;;;;;4998849;28;20538;-68
2023/03/09 09:16:16;;;;;;;11.60;11.10;;;;;;;;;;5015263;28;20076;-70
2023/03/09 09:18:41;;;;;;;11.55;11.05;;;;;;;;;;5026935;28;20486;-71
2023/03/09 09:21:09;;;;;;;11.18;10.68;;;;;;;;;;5005652;28;20041;-64
2023/03/09 09:23:34;;;;;;;11.00;10.50;;;;;;;;;;5011939;28;20026;-75
2023/03/09 09:26:02;;;;;;;11.10;10.60;;;;;;;;;;5018022;28;20041;-72
2023/03/09 09:28:28;;;;;;;11.15;10.65;;;;;;;;;;4995029;28;20034;-64
2023/03/09 09:30:54;;;;;;;11.05;10.55;;;;;;;;;;5010212;28;20525;-65
2023/03/09 09:33:19;;;;;;;10.90;10.40;;;;;;;;;;5009039;28;20121;-71
2023/03/09 09:36:00;;;;;;;10.90;10.40;;;;;;;;;;5009444;28;20096;-66
2023/03/09 09:38:26;;;;;;;11.32;10.82;;;;;;;;;;5019293;28;20053;-68
2023/03/09 09:40:53;;;;;;;10.88;10.38;;;;;;;;;;5017810;28;20049;-67
2023/03/09 09:43:19;;;;;;;10.73;10.23;;;;;;;;;;5009563;28;20038;-66
2023/03/09 09:45:44;;;;;;;11.02;10.52;;;;;;;;;;5007150;28;20033;-64
2023/03/09 09:48:15;;;;;;;10.90;10.40;;;;;;;;;;5015579;28;20037;-63
2023/03/09 09:50:41;;;;;;;11.10;10.60;;;;;;;;;;5007181;28;20030;-62
2023/03/09 09:53:06;;;;;;;11.50;11.00;;;;;;;;;;5009617;28;20025;-62
2023/03/09 09:55:33;;;;;;;10.93;10.43;;;;;;;;;;5005138;28;20553;-61
2023/03/09 09:58:14;;;;;;;10.50;10.00;;;;;;;;;;5008153;28;20759;-61
2023/03/09 10:00:40;;;;;;;10.63;10.13;;;;;;;;;;5009292;28;20023;-60
2023/03/09 10:03:25;;;;;;;10.52;10.02;;;;;;;;;;4986818;28;20452;-62
2023/03/09 10:06:08;;;;;;;11.10;10.60;;;;;;;;;;5007551;28;20037;-64
2023/03/09 10:08:36;;;;;;;11.07;10.57;;;;;;;;;;5010493;28;20018;-64
2023/03/09 10:11:07;;;;;;;10.48;9.98;;;;;;;;;;5014401;28;20378;-64
2023/03/09 10:13:44;;;;;;;10.38;9.88;;;;;;;;;;5007491;28;20022;-64
2023/03/09 10:16:18;;;;;;;10.60;10.10;;;;;;;;;;5007939;28;20092;-63
2023/03/09 10:18:43;;;;;;;;;;;;;;;;;;5016516;28;20569;-63
2023/03/09 10:21:15;;;;;;;10.87;10.37;;;;;;;;;;5011578;28;19948;-63
2023/03/09 10:23:41;;;;;;;10.40;9.90;;;;;;;;;;5013157;28;20034;-63
2023/03/09 10:26:25;;;;;;;10.55;10.05;;;;;;;;;;5012840;28;20037;-63
2023/03/09 10:28:54;;;;;;;10.23;9.73;;;;;;;;;;5012965;28;20076;-63
2023/03/09 10:31:41;;;;;;;9.85;9.45;;;;;;;;;;5009185;28;20076;-63
2023/03/09 10:34:36;;;;;;;10.30;9.80;;;;;;;;;;5013124;28;20334;-64
2023/03/09 10:37:04;;;;;;;10.25;9.75;;;;;;;;;;4994192;28;20026;-64
2023/03/09 10:39:34;;;;;;;11.00;10.50;;;;;;;;;;5012403;28;20145;-63
2023/03/09 10:42:01;;;;;;;10.30;9.80;;;;;;;;;;5010467;28;20393;-63
2023/03/09 10:44:28;;;;;;;10.50;10.00;;;;;;;;;;5005070;28;20022;-63
2023/03/09 10:46:54;;;;;;;10.57;10.07;;;;;;;;;;4994235;28;20034;-64
2023/03/09 10:49:19;;;;;;;10.60;10.10;;;;;;;;;;5012285;28;20025;-64
2023/03/09 10:51:53;;;;;;;10.00;9.60;;;;;;;;;;5011282;28;20026;-64
2023/03/09 10:54:29;;;;;;;10.55;10.05;;;;;;;;;;5008489;28;20022;-64
2023/03/09 10:56:55;;;;;;;10.45;9.95;;;;;;;;;;5004962;28;20026;-64
2023/03/09 10:59:24;;;;;;;9.90;9.50;;;;;;;;;;5001343;28;20029;-63
2023/03/09 11:01:54;;;;;;;10.90;10.40;;;;;;;;;;5008374;28;20168;-64
2023/03/09 11:04:26;;;;;;;10.73;10.23;;;;;;;;;;5007652;28;20026;-64
2023/03/09 11:06:51;;;;;;;10.38;9.88;;;;;;;;;;5004668;28;20029;-62
2023/03/09 11:09:31;;;;;;;10.20;9.75;;;;;;;;;;5010098;28;20029;-62
2023/03/09 11:12:14;;;;;;;10.63;10.13;;;;;;;;;;5003872;28;20030;-63
2023/03/09 11:14:44;;;;;;;10.38;9.88;;;;;;;;;;5009383;28;20044;-62
2023/03/09 11:17:32;;;;;;;11.07;10.57;;;;;;;;;;5007845;28;20441;-62
2023/03/09 11:20:12;;;;;;;10.25;9.75;;;;;;;;;;5002949;28;20080;-62
2023/03/09 11:22:39;;;;;;;10.95;10.45;;;;;;;;;;5007823;28;20034;-60
2023/03/09 11:25:05;;;;;;;10.68;10.18;;;;;;;;;;5006351;28;20114;-62
2023/03/09 11:27:34;;;;;;;10.88;10.38;;;;;;;;;;5001714;28;20026;-62
2023/03/09 11:30:11;;;;;;;10.80;10.30;;;;;;;;;;5009963;28;20046;-62
2023/03/09 11:32:36;;;;;;;11.18;10.68;;;;;;;;;;5011904;28;20115;-63
2023/03/09 11:35:02;;;;;;;10.95;10.45;;;;;;;;;;5002905;28;20041;-62
2023/03/09 11:37:39;;;;;;;10.65;10.15;;;;;;;;;;5006862;28;20026;-65
2023/03/09 11:40:10;;;;;;;10.88;10.38;;;;;;;;;;5005953;28;20428;-64
2023/03/09 11:42:38;;;;;;;10.82;10.32;;;;;;;;;;5000568;28;20109;-63
2023/03/09 11:45:05;;;;;;;10.48;9.98;;;;;;;;;;5014399;28;20029;-64
2023/03/09 11:47:36;;;;;;;10.57;10.07;;;;;;;;;;5011875;28;20018;-64
2023/03/09 11:50:12;;;;;;;10.65;10.15;;;;;;;;;;5010098;28;20022;-64
2023/03/09 11:52:42;;;;;;;10.05;9.57;;;;;;;;;;5010357;28;20096;-64
2023/03/09 11:55:12;;;;;;;10.65;10.15;;;;;;;;;;5009554;28;20026;-65
2023/03/09 11:57:39;;;;;;;10.95;10.45;;;;;;;;;;5012814;28;20029;-65
2023/03/09 12:00:11;;;;;;;10.20;9.70;;;;;;;;;;5026486;28;20072;-65
2023/03/09 12:02:46;;;;;;;10.40;9.90;;;;;;;;;;5019491;28;20071;-64
2023/03/09 12:05:11;;;;;;;10.40;9.90;;;;;;;;;;5013992;28;20022;-65
2023/03/09 12:07:52;;;;;;;10.23;9.73;;;;;;;;;;5020145;28;20445;-64
2023/03/09 12:10:47;;;;;;;10.88;10.38;;;;;;;;;;5011906;28;20025;-64
2023/03/09 12:13:33;;;;;;;10.23;9.73;;;;;;;;;;5000920;28;20045;-65
2023/03/09 12:16:02;;;;;;;10.35;9.85;;;;;;;;;;5017932;28;20083;-65
2023/03/09 12:18:29;;;;;;;10.35;9.85;;;;;;;;;;5014799;28;20504;-64
2023/03/09 12:20:55;;;;;;;10.35;9.85;;;;;;;;;;5020618;28;20100;-66
2023/03/09 12:23:50;;;;;;;10.27;9.77;;;;;;;;;;5017555;28;20022;-65
2023/03/09 12:26:18;;;;;;;10.57;10.07;;;;;;;;;;4999164;28;20443;-65
2023/03/09 12:28:54;;;;;;;10.85;10.35;;;;;;;;;;5019184;28;20025;-65
2023/03/09 12:31:27;;;;;;;10.40;9.90;;;;;;;;;;5016324;28;20042;-65
2023/03/09 12:33:58;;;;;;;10.30;9.80;;;;;;;;;;5016912;28;20029;-65
2023/03/09 12:36:25;;;;;;;10.40;9.90;;;;;;;;;;5003873;28;20042;-65
2023/03/09 12:39:17;;;;;;;10.40;9.90;;;;;;;;;;5020511;28;20028;-66
2023/03/09 12:41:58;;;;;;;10.65;10.15;;;;;;;;;;4985722;28;20030;-64
2023/03/09 12:44:42;;;;;;;10.57;10.07;;;;;;;;;;5022754;28;20049;-65
2023/03/09 12:47:20;;;;;;;10.70;10.20;;;;;;;;;;5010939;28;20029;-64
2023/03/09 12:49:47;;;;;;;11.15;10.65;;;;;;;;;;5003977;28;20041;-65
2023/03/09 12:52:16;;;;;;;10.13;9.63;;;;;;;;;;5010931;28;20108;-63
2023/03/09 12:54:42;;;;;;;10.75;10.25;;;;;;;;;;5019066;28;20144;-65
2023/03/09 12:57:11;;;;;;;10.77;10.27;;;;;;;;;;5015562;28;20117;-64
2023/03/09 12:59:36;;;;;;;10.27;9.77;;;;;;;;;;5026404;28;20140;-65
2023/03/09 13:02:21;;;;;;;10.18;9.68;;;;;;;;;;5023068;28;20482;-64
2023/03/09 13:05:05;;;;;;;10.48;9.98;;;;;;;;;;5020577;28;20049;-65
2023/03/09 13:07:30;;;;;;;10.95;10.45;;;;;;;;;;5011939;28;20045;-66
2023/03/09 13:09:56;;;;;;;10.68;10.18;;;;;;;;;;5023989;28;20084;-65
2023/03/09 13:12:28;;;;;;;10.95;10.45;;;;;;;;;;5021486;28;20380;-65
2023/03/09 13:14:56;;;;;;;10.45;9.95;;;;;;;;;;5019671;28;20400;-65
2023/03/09 13:17:22;;;;;;;10.45;9.95;;;;;;;;;;5023010;28;20025;-65
2023/03/09 13:19:49;;;;;;;10.73;10.23;;;;;;;;;;5012608;28;20037;-64
2023/03/09 13:22:18;;;;;;;10.70;10.20;;;;;;;;;;5024967;28;20104;-66
2023/03/09 13:24:43;;;;;;;10.70;10.20;;;;;;;;;;5014787;28;20041;-65
2023/03/09 13:27:19;;;;;;;10.95;10.45;;;;;;;;;;5015698;28;20034;-66
2023/03/09 13:30:20;;;;;;;10.30;9.80;;;;;;;;;;5018747;28;20057;-64
2023/03/09 13:32:58;;;;;;;10.45;9.95;;;;;;;;;;4934163;29;20031;-65
2023/03/09 13:35:35;;;;;;;10.50;10.00;;;;;;;;;;5013543;28;20157;-66
2023/03/09 13:38:01;;;;;;;11.60;11.00;;;;;;;;;;5022624;28;20556;-64
2023/03/09 13:40:29;;;;;;;11.75;11.15;;;;;;;;;;5018289;28;20022;-65
2023/03/09 13:42:55;;;;;;;10.38;9.88;;;;;;;;;;5020383;28;20068;-65
2023/03/09 13:45:39;;;;;;;10.60;10.10;;;;;;;;;;5028034;28;20025;-65
2023/03/09 13:48:05;;;;;;;10.95;10.45;;;;;;;;;;5003618;28;20516;-65
2023/03/09 13:50:32;;;;;;;12.13;11.48;;;;;;;;;;5008196;28;20033;-66
2023/03/09 13:53:05;;;;;;;11.65;11.05;;;;;;;;;;4993751;28;20081;-65
2023/03/09 13:55:31;;;;;;;11.27;10.77;;;;;;;;;;4993448;28;20014;-64
2023/03/09 13:58:11;;;;;;;11.55;10.95;;;;;;;;;;5011748;28;20022;-65
2023/03/09 14:00:37;;;;;;;11.00;10.50;;;;;;;;;;5024407;28;20018;-66
2023/03/09 14:03:02;;;;;;;11.75;11.15;;;;;;;;;;4995609;28;20079;-65
2023/03/09 14:05:27;;;;;;;10.77;10.27;;;;;;;;;;5011795;28;20052;-65
2023/03/09 14:07:55;;;;;;;10.82;10.32;;;;;;;;;;5022891;28;20053;-65
2023/03/09 14:10:40;;;;;;;11.82;11.23;;;;;;;;;;5015508;28;20024;-64
2023/03/09 14:13:15;;;;;;;11.00;10.50;;;;;;;;;;5009925;28;20091;-64
2023/03/09 14:15:40;;;;;;;10.25;9.75;;;;;;;;;;5006062;28;20397;-64
2023/03/09 14:18:17;;;;;;;10.32;9.82;;;;;;;;;;5010132;28;20095;-65
2023/03/09 14:20:45;;;;;;;10.32;9.82;;;;;;;;;;5000702;28;20022;-64
2023/03/09 14:23:28;;;;;;;10.40;9.90;;;;;;;;;;5017073;28;20124;-64
2023/03/09 14:25:57;;;;;;;11.45;10.85;;;;;;;;;;5010852;28;20103;-65
2023/03/09 14:28:23;;;;;;;11.20;10.68;;;;;;;;;;5012694;28;20081;-65
2023/03/09 14:30:48;;;;;;;11.07;10.57;;;;;;;;;;5005747;28;20045;-64
2023/03/09 14:33:21;;;;;;;11.02;10.52;;;;;;;;;;4998611;28;20057;-65
2023/03/09 14:35:47;;;;;;;11.10;10.55;;;;;;;;;;5008351;28;20513;-65